sensor_id;sensor_type;location;lat;lon;timestamp;pressure;altitude;pressure_sealevel;temperature;humidity
30081;BME280;16902;50.816;12.828;2023-02-17T00:04:42;98259.28;;;7.25;100.00
30081;BME280;16902;50.816;12.828;2023-02-17T00:09:44;98271.66;;;7.31;100.00
30081;BME280;16902;50.816;12.828;2023-02-17T00:14:45;98272.59;;;7.30;100.00
30081;BME280;16902;50.816;12.828;2023-02-17T00:19:47;98262.16;;;7.04;100.00
30081;BME280;16902;50.816;12.828;2023-02-17T00:24:49;98254.94;;;6.70;100.00
30081;BME280;16902;50.816;12.828;2023-02-17T00:29:51;98252.16;;;6.54;100.00
30081;BME280;16902;50.816;12.828;2023-02-17T00:34:53;98247.09;;;6.62;100.00
30081;BME280;16902;50.816;12.828;2023-02-17T00:39:56;98234.09;;;6.72;100.00
30081;BME280;16902;50.816;12.828;2023-02-17T00:44:58;98220.25;;;6.90;100.00
30081;BME280;16902;50.816;12.828;2023-02-17T00:50:00;98217.69;;;7.08;100.00
30081;BME280;16902;50.816;12.828;2023-02-17T00:55:02;98227.03;;;7.19;100.00
30081;BME280;16902;50.816;12.828;2023-02-17T01:00:05;98227.41;;;7.24;100.00
30081;BME280;16902;50.816;12.828;2023-02-17T01:05:07;98215.50;;;7.31;100.00
30081;BME280;16902;50.816;12.828;2023-02-17T01:10:09;98199.00;;;7.32;100.00
30081;BME280;16902;50.816;12.828;2023-02-17T01:15:11;98200.34;;;7.36;100.00
30081;BME280;16902;50.816;12.828;2023-02-17T01:20:13;98203.13;;;7.43;100.00
30081;BME280;16902;50.816;12.828;2023-02-17T01:25:15;98201.06;;;7.46;100.00
30081;BME280;16902;50.816;12.828;2023-02-17T01:30:17;98197.78;;;7.44;100.00
30081;BME280;16902;50.816;12.828;2023-02-17T01:35:19;98190.88;;;7.45;100.00
30081;BME280;16902;50.816;12.828;2023-02-17T01:40:21;98194.75;;;7.49;100.00
30081;BME280;16902;50.816;12.828;2023-02-17T01:45:32;98182.03;;;7.38;100.00
30081;BME280;16902;50.816;12.828;2023-02-17T01:50:41;98169.53;;;7.33;100.00
30081;BME280;16902;50.816;12.828;2023-02-17T01:55:44;98158.44;;;7.41;100.00
30081;BME280;16902;50.816;12.828;2023-02-17T02:00:48;98152.00;;;7.45;100.00
30081;BME280;16902;50.816;12.828;2023-02-17T02:05:54;98156.22;;;7.46;100.00
30081;BME280;16902;50.816;12.828;2023-02-17T02:10:56;98152.50;;;7.48;100.00
30081;BME280;16902;50.816;12.828;2023-02-17T02:16:53;98142.81;;;7.51;100.00
30081;BME280;16902;50.816;12.828;2023-02-17T02:27:27;98148.97;;;7.50;100.00
30081;BME280;16902;50.816;12.828;2023-02-17T02:43:15;98122.91;;;7.51;100.00
30081;BME280;16902;50.816;12.828;2023-02-17T02:48:18;98120.31;;;7.51;100.00
30081;BME280;16902;50.816;12.828;2023-02-17T03:04:35;98090.69;;;7.54;100.00
30081;BME280;16902;50.816;12.828;2023-02-17T03:09:39;98092.34;;;7.55;100.00
30081;BME280;16902;50.816;12.828;2023-02-17T03:14:42;98085.50;;;7.54;100.00
30081;BME280;16902;50.816;12.828;2023-02-17T03:19:44;98089.38;;;7.50;100.00
30081;BME280;16902;50.816;12.828;2023-02-17T03:24:50;98094.59;;;7.32;100.00
30081;BME280;16902;50.816;12.828;2023-02-17T03:29:52;98083.81;;;7.18;100.00
30081;BME280;16902;50.816;12.828;2023-02-17T03:34:54;98082.91;;;7.28;100.00
30081;BME280;16902;50.816;12.828;2023-02-17T03:39:57;98089.69;;;7.29;100.00
30081;BME280;16902;50.816;12.828;2023-02-17T03:44:59;98088.25;;;7.26;100.00
30081;BME280;16902;50.816;12.828;2023-02-17T03:50:01;98095.03;;;7.27;100.00
30081;BME280;16902;50.816;12.828;2023-02-17T03:55:03;98088.00;;;7.19;100.00
30081;BME280;16902;50.816;12.828;2023-02-17T04:00:06;98087.88;;;6.85;100.00
30081;BME280;16902;50.816;12.828;2023-02-17T04:05:13;98090.47;;;6.50;100.00
30081;BME280;16902;50.816;12.828;2023-02-17T04:10:15;98084.16;;;6.34;100.00
30081;BME280;16902;50.816;12.828;2023-02-17T04:15:17;98078.59;;;6.29;100.00
30081;BME280;16902;50.816;12.828;2023-02-17T04:20:19;98077.06;;;6.36;100.00
30081;BME280;16902;50.816;12.828;2023-02-17T04:25:21;98070.63;;;6.40;100.00
30081;BME280;16902;50.816;12.828;2023-02-17T04:30:24;98076.56;;;6.51;100.00
30081;BME280;16902;50.816;12.828;2023-02-17T04:35:26;98070.34;;;6.61;100.00
30081;BME280;16902;50.816;12.828;2023-02-17T04:40:28;98058.25;;;6.80;100.00
30081;BME280;16902;50.816;12.828;2023-02-17T04:45:30;98060.91;;;6.88;100.00
30081;BME280;16902;50.816;12.828;2023-02-17T04:50:32;98065.78;;;6.91;100.00
30081;BME280;16902;50.816;12.828;2023-02-17T04:55:33;98057.88;;;6.75;100.00
30081;BME280;16902;50.816;12.828;2023-02-17T05:00:36;98063.84;;;6.57;100.00
30081;BME280;16902;50.816;12.828;2023-02-17T05:05:37;98058.22;;;6.44;100.00
30081;BME280;16902;50.816;12.828;2023-02-17T05:10:39;98057.72;;;6.40;100.00
30081;BME280;16902;50.816;12.828;2023-02-17T05:15:45;98049.94;;;6.40;100.00
30081;BME280;16902;50.816;12.828;2023-02-17T05:20:47;98032.66;;;6.41;100.00
30081;BME280;16902;50.816;12.828;2023-02-17T05:25:48;98022.16;;;6.42;100.00
30081;BME280;16902;50.816;12.828;2023-02-17T05:30:50;98032.50;;;6.42;100.00
30081;BME280;16902;50.816;12.828;2023-02-17T05:35:52;98030.28;;;6.48;100.00
30081;BME280;16902;50.816;12.828;2023-02-17T05:40:54;98035.97;;;6.51;100.00
30081;BME280;16902;50.816;12.828;2023-02-17T05:46:01;98036.22;;;6.58;100.00
30081;BME280;16902;50.816;12.828;2023-02-17T05:51:03;98030.97;;;6.67;100.00
30081;BME280;16902;50.816;12.828;2023-02-17T05:56:05;98024.25;;;6.75;100.00
30081;BME280;16902;50.816;12.828;2023-02-17T06:01:09;98025.13;;;6.83;100.00
30081;BME280;16902;50.816;12.828;2023-02-17T06:06:11;98032.28;;;6.89;100.00
30081;BME280;16902;50.816;12.828;2023-02-17T06:11:13;98030.22;;;6.93;100.00
30081;BME280;16902;50.816;12.828;2023-02-17T06:16:15;98032.81;;;6.93;100.00
30081;BME280;16902;50.816;12.828;2023-02-17T06:21:17;98026.81;;;6.92;100.00
30081;BME280;16902;50.816;12.828;2023-02-17T06:26:21;98029.09;;;6.95;100.00
30081;BME280;16902;50.816;12.828;2023-02-17T06:31:23;98033.47;;;6.95;100.00
30081;BME280;16902;50.816;12.828;2023-02-17T06:36:25;98035.22;;;6.94;100.00
30081;BME280;16902;50.816;12.828;2023-02-17T06:41:27;98039.59;;;6.94;100.00
30081;BME280;16902;50.816;12.828;2023-02-17T06:46:28;98033.09;;;6.90;100.00
30081;BME280;16902;50.816;12.828;2023-02-17T06:51:30;98049.94;;;6.94;100.00
30081;BME280;16902;50.816;12.828;2023-02-17T06:56:32;98056.09;;;6.93;100.00
30081;BME280;16902;50.816;12.828;2023-02-17T07:01:34;98050.41;;;6.89;100.00
30081;BME280;16902;50.816;12.828;2023-02-17T07:06:36;98045.75;;;6.93;100.00
30081;BME280;16902;50.816;12.828;2023-02-17T07:11:38;98059.84;;;6.99;100.00
30081;BME280;16902;50.816;12.828;2023-02-17T07:16:39;98060.88;;;7.06;100.00
30081;BME280;16902;50.816;12.828;2023-02-17T07:21:42;98035.50;;;7.09;100.00
30081;BME280;16902;50.816;12.828;2023-02-17T07:26:44;98040.22;;;7.14;100.00
30081;BME280;16902;50.816;12.828;2023-02-17T07:31:46;98024.41;;;7.17;100.00
30081;BME280;16902;50.816;12.828;2023-02-17T07:36:48;98014.56;;;7.20;100.00
30081;BME280;16902;50.816;12.828;2023-02-17T07:41:49;98017.34;;;7.27;100.00
30081;BME280;16902;50.816;12.828;2023-02-17T07:46:52;98014.59;;;7.29;100.00
30081;BME280;16902;50.816;12.828;2023-02-17T07:51:54;98010.38;;;7.28;100.00
30081;BME280;16902;50.816;12.828;2023-02-17T07:56:56;97993.88;;;7.29;100.00
30081;BME280;16902;50.816;12.828;2023-02-17T08:01:57;97995.66;;;7.28;100.00
30081;BME280;16902;50.816;12.828;2023-02-17T08:06:59;98003.63;;;7.35;100.00
30081;BME280;16902;50.816;12.828;2023-02-17T08:12:01;98001.41;;;7.40;100.00
30081;BME280;16902;50.816;12.828;2023-02-17T08:17:21;97997.84;;;7.41;100.00
30081;BME280;16902;50.816;12.828;2023-02-17T08:22:23;98009.38;;;7.46;100.00
30081;BME280;16902;50.816;12.828;2023-02-17T08:27:26;98022.84;;;7.50;100.00
30081;BME280;16902;50.816;12.828;2023-02-17T08:32:27;98028.66;;;7.52;100.00
30081;BME280;16902;50.816;12.828;2023-02-17T08:37:29;98017.03;;;7.56;100.00
30081;BME280;16902;50.816;12.828;2023-02-17T08:42:32;98008.47;;;7.64;100.00
30081;BME280;16902;50.816;12.828;2023-02-17T08:47:34;98003.50;;;7.70;100.00
30081;BME280;16902;50.816;12.828;2023-02-17T08:52:36;98014.38;;;7.74;100.00
30081;BME280;16902;50.816;12.828;2023-02-17T08:57:38;97989.63;;;7.80;100.00
30081;BME280;16902;50.816;12.828;2023-02-17T09:02:40;97979.13;;;7.89;100.00
30081;BME280;16902;50.816;12.828;2023-02-17T09:07:45;97979.13;;;7.97;100.00
30081;BME280;16902;50.816;12.828;2023-02-17T09:12:47;97963.66;;;8.22;100.00
30081;BME280;16902;50.816;12.828;2023-02-17T09:17:49;97959.13;;;8.32;100.00
30081;BME280;16902;50.816;12.828;2023-02-17T09:22:51;97973.91;;;8.48;100.00
30081;BME280;16902;50.816;12.828;2023-02-17T09:27:53;97971.47;;;8.79;100.00
30081;BME280;16902;50.816;12.828;2023-02-17T09:32:55;97956.84;;;8.94;100.00
30081;BME280;16902;50.816;12.828;2023-02-17T09:37:57;97949.56;;;9.06;100.00
30081;BME280;16902;50.816;12.828;2023-02-17T09:43:00;97944.53;;;9.05;100.00
30081;BME280;16902;50.816;12.828;2023-02-17T09:48:07;97920.69;;;9.01;100.00
30081;BME280;16902;50.816;12.828;2023-02-17T09:53:18;97931.88;;;9.10;100.00
30081;BME280;16902;50.816;12.828;2023-02-17T09:58:31;97927.66;;;9.00;100.00
30081;BME280;16902;50.816;12.828;2023-02-17T10:03:42;97911.88;;;9.10;100.00
30081;BME280;16902;50.816;12.828;2023-02-17T10:08:52;97918.06;;;9.09;100.00
30081;BME280;16902;50.816;12.828;2023-02-17T10:14:00;97931.88;;;9.10;100.00
30081;BME280;16902;50.816;12.828;2023-02-17T10:19:10;97919.69;;;9.10;100.00
30081;BME280;16902;50.816;12.828;2023-02-17T10:24:15;97911.22;;;9.08;100.00
30081;BME280;16902;50.816;12.828;2023-02-17T10:39:59;97901.91;;;9.38;100.00
30081;BME280;16902;50.816;12.828;2023-02-17T10:45:09;97870.47;;;9.56;100.00
30081;BME280;16902;50.816;12.828;2023-02-17T10:50:20;97861.84;;;9.56;100.00
30081;BME280;16902;50.816;12.828;2023-02-17T10:56:08;97867.22;;;9.54;100.00
30081;BME280;16902;50.816;12.828;2023-02-17T11:01:13;97854.09;;;9.47;100.00
30081;BME280;16902;50.816;12.828;2023-02-17T11:06:17;97840.78;;;9.42;100.00
30081;BME280;16902;50.816;12.828;2023-02-17T11:11:28;97838.09;;;9.36;100.00
30081;BME280;16902;50.816;12.828;2023-02-17T11:21:42;97827.38;;;9.31;100.00
30081;BME280;16902;50.816;12.828;2023-02-17T11:26:58;97828.16;;;9.39;100.00
30081;BME280;16902;50.816;12.828;2023-02-17T11:32:06;97815.59;;;9.51;100.00
30081;BME280;16902;50.816;12.828;2023-02-17T11:42:22;97794.63;;;9.75;100.00
30081;BME280;16902;50.816;12.828;2023-02-17T12:19:21;97763.38;;;9.84;100.00
30081;BME280;16902;50.816;12.828;2023-02-17T12:35:51;97772.56;;;9.71;100.00
30081;BME280;16902;50.816;12.828;2023-02-17T12:41:13;97751.53;;;9.81;100.00
30081;BME280;16902;50.816;12.828;2023-02-17T12:46:22;97748.69;;;9.91;100.00
30081;BME280;16902;50.816;12.828;2023-02-17T12:51:28;97740.00;;;9.98;100.00
30081;BME280;16902;50.816;12.828;2023-02-17T12:56:42;97710.31;;;10.31;100.00
30081;BME280;16902;50.816;12.828;2023-02-17T13:01:54;97704.66;;;10.42;100.00
30081;BME280;16902;50.816;12.828;2023-02-17T13:17:39;97699.53;;;10.48;100.00
30081;BME280;16902;50.816;12.828;2023-02-17T13:22:42;97668.56;;;10.53;100.00
30081;BME280;16902;50.816;12.828;2023-02-17T13:27:44;97672.97;;;10.53;100.00
30081;BME280;16902;50.816;12.828;2023-02-17T13:32:47;97680.59;;;10.54;100.00
30081;BME280;16902;50.816;12.828;2023-02-17T13:38:00;97699.09;;;10.60;100.00
30081;BME280;16902;50.816;12.828;2023-02-17T13:43:14;97691.09;;;10.61;100.00
30081;BME280;16902;50.816;12.828;2023-02-17T13:58:36;97680.75;;;10.68;100.00
30081;BME280;16902;50.816;12.828;2023-02-17T14:08:41;97681.84;;;10.73;100.00
30081;BME280;16902;50.816;12.828;2023-02-17T14:13:46;97665.75;;;10.70;100.00
30081;BME280;16902;50.816;12.828;2023-02-17T14:18:48;97655.16;;;10.71;100.00
30081;BME280;16902;50.816;12.828;2023-02-17T14:24:01;97663.72;;;10.65;100.00
30081;BME280;16902;50.816;12.828;2023-02-17T14:29:05;97654.19;;;10.58;100.00
30081;BME280;16902;50.816;12.828;2023-02-17T14:34:33;97637.78;;;10.57;100.00
30081;BME280;16902;50.816;12.828;2023-02-17T14:39:34;97631.75;;;10.57;100.00
30081;BME280;16902;50.816;12.828;2023-02-17T14:44:36;97618.13;;;10.54;100.00
30081;BME280;16902;50.816;12.828;2023-02-17T14:49:38;97635.72;;;10.52;100.00
30081;BME280;16902;50.816;12.828;2023-02-17T14:54:39;97601.16;;;10.44;100.00
30081;BME280;16902;50.816;12.828;2023-02-17T14:59:42;97630.19;;;10.41;100.00
30081;BME280;16902;50.816;12.828;2023-02-17T15:04:44;97614.72;;;10.39;100.00
30081;BME280;16902;50.816;12.828;2023-02-17T15:09:47;97621.56;;;10.40;100.00
30081;BME280;16902;50.816;12.828;2023-02-17T15:14:49;97641.03;;;10.44;100.00
30081;BME280;16902;50.816;12.828;2023-02-17T15:19:51;97611.66;;;10.50;100.00
30081;BME280;16902;50.816;12.828;2023-02-17T15:24:53;97644.31;;;10.53;100.00
30081;BME280;16902;50.816;12.828;2023-02-17T15:29:55;97649.19;;;10.56;100.00
30081;BME280;16902;50.816;12.828;2023-02-17T15:34:57;97663.59;;;10.59;100.00
30081;BME280;16902;50.816;12.828;2023-02-17T15:40:00;97664.06;;;10.62;100.00
30081;BME280;16902;50.816;12.828;2023-02-17T15:45:02;97684.28;;;10.60;100.00
30081;BME280;16902;50.816;12.828;2023-02-17T15:50:10;97682.81;;;10.58;100.00
30081;BME280;16902;50.816;12.828;2023-02-17T15:55:13;97658.34;;;10.52;100.00
30081;BME280;16902;50.816;12.828;2023-02-17T16:00:22;97665.69;;;10.48;100.00
30081;BME280;16902;50.816;12.828;2023-02-17T16:05:27;97673.88;;;10.45;100.00
30081;BME280;16902;50.816;12.828;2023-02-17T16:10:30;97659.59;;;10.41;100.00
30081;BME280;16902;50.816;12.828;2023-02-17T16:15:33;97647.91;;;10.52;100.00
30081;BME280;16902;50.816;12.828;2023-02-17T16:20:36;97646.31;;;10.51;100.00
30081;BME280;16902;50.816;12.828;2023-02-17T16:25:38;97655.53;;;10.53;100.00
30081;BME280;16902;50.816;12.828;2023-02-17T16:30:42;97648.91;;;10.51;100.00
30081;BME280;16902;50.816;12.828;2023-02-17T16:35:45;97648.28;;;10.49;100.00
30081;BME280;16902;50.816;12.828;2023-02-17T16:40:49;97662.72;;;10.51;100.00
30081;BME280;16902;50.816;12.828;2023-02-17T16:45:57;97648.28;;;10.64;100.00
30081;BME280;16902;50.816;12.828;2023-02-17T16:50:59;97652.03;;;10.61;100.00
30081;BME280;16902;50.816;12.828;2023-02-17T16:56:05;97656.50;;;10.67;100.00
30081;BME280;16902;50.816;12.828;2023-02-17T17:01:14;97679.22;;;10.73;100.00
30081;BME280;16902;50.816;12.828;2023-02-17T17:11:23;97670.31;;;10.82;100.00
30081;BME280;16902;50.816;12.828;2023-02-17T17:16:30;97655.50;;;10.83;100.00
30081;BME280;16902;50.816;12.828;2023-02-17T17:21:32;97663.13;;;10.85;100.00
30081;BME280;16902;50.816;12.828;2023-02-17T17:26:40;97650.81;;;10.93;100.00
30081;BME280;16902;50.816;12.828;2023-02-17T17:31:45;97680.25;;;10.94;100.00
30081;BME280;16902;50.816;12.828;2023-02-17T17:36:47;97668.25;;;10.93;100.00
30081;BME280;16902;50.816;12.828;2023-02-17T17:41:49;97685.72;;;10.99;100.00
30081;BME280;16902;50.816;12.828;2023-02-17T17:46:52;97662.78;;;11.09;100.00
30081;BME280;16902;50.816;12.828;2023-02-17T17:51:54;97694.59;;;11.04;100.00
30081;BME280;16902;50.816;12.828;2023-02-17T17:56:55;97691.38;;;11.02;100.00
30081;BME280;16902;50.816;12.828;2023-02-17T18:01:57;97690.13;;;10.98;100.00
30081;BME280;16902;50.816;12.828;2023-02-17T18:07:00;97663.19;;;10.91;100.00
30081;BME280;16902;50.816;12.828;2023-02-17T18:12:09;97690.84;;;10.92;100.00
30081;BME280;16902;50.816;12.828;2023-02-17T18:17:12;97712.69;;;10.91;100.00
30081;BME280;16902;50.816;12.828;2023-02-17T18:22:15;97702.50;;;10.96;100.00
30081;BME280;16902;50.816;12.828;2023-02-17T18:27:17;97706.75;;;10.82;100.00
30081;BME280;16902;50.816;12.828;2023-02-17T18:32:19;97715.25;;;10.70;100.00
30081;BME280;16902;50.816;12.828;2023-02-17T18:37:23;97722.16;;;10.33;100.00
30081;BME280;16902;50.816;12.828;2023-02-17T18:42:24;97700.28;;;10.04;100.00
30081;BME280;16902;50.816;12.828;2023-02-17T18:47:26;97716.16;;;9.95;100.00
30081;BME280;16902;50.816;12.828;2023-02-17T18:52:28;97724.13;;;9.93;100.00
30081;BME280;16902;50.816;12.828;2023-02-17T18:57:31;97733.34;;;9.96;100.00
30081;BME280;16902;50.816;12.828;2023-02-17T19:02:38;97724.78;;;10.10;100.00
30081;BME280;16902;50.816;12.828;2023-02-17T19:07:40;97709.00;;;9.97;100.00
30081;BME280;16902;50.816;12.828;2023-02-17T19:12:42;97713.97;;;9.84;100.00
30081;BME280;16902;50.816;12.828;2023-02-17T19:17:44;97725.59;;;9.73;100.00
30081;BME280;16902;50.816;12.828;2023-02-17T19:22:46;97739.19;;;9.60;100.00
30081;BME280;16902;50.816;12.828;2023-02-17T19:27:48;97759.59;;;9.48;100.00
30081;BME280;16902;50.816;12.828;2023-02-17T19:32:50;97778.00;;;9.39;100.00
30081;BME280;16902;50.816;12.828;2023-02-17T19:37:52;97841.66;;;9.35;100.00
30081;BME280;16902;50.816;12.828;2023-02-17T19:42:54;97844.59;;;9.32;100.00
30081;BME280;16902;50.816;12.828;2023-02-17T19:47:55;97851.38;;;9.01;100.00
30081;BME280;16902;50.816;12.828;2023-02-17T19:52:58;97858.06;;;8.80;100.00
30081;BME280;16902;50.816;12.828;2023-02-17T19:57:59;97858.25;;;8.70;100.00
30081;BME280;16902;50.816;12.828;2023-02-17T20:03:01;97898.50;;;8.66;100.00
30081;BME280;16902;50.816;12.828;2023-02-17T20:08:04;97876.59;;;8.60;100.00
30081;BME280;16902;50.816;12.828;2023-02-17T20:13:06;97875.63;;;8.53;100.00
30081;BME280;16902;50.816;12.828;2023-02-17T20:18:08;97859.75;;;8.48;100.00
30081;BME280;16902;50.816;12.828;2023-02-17T20:23:10;97851.97;;;8.48;100.00
30081;BME280;16902;50.816;12.828;2023-02-17T20:28:12;97866.06;;;8.45;100.00
30081;BME280;16902;50.816;12.828;2023-02-17T20:33:14;97860.56;;;8.48;100.00
30081;BME280;16902;50.816;12.828;2023-02-17T20:38:16;97863.16;;;8.48;100.00
30081;BME280;16902;50.816;12.828;2023-02-17T20:43:18;97869.47;;;8.54;100.00
30081;BME280;16902;50.816;12.828;2023-02-17T20:48:21;97864.47;;;8.61;100.00
30081;BME280;16902;50.816;12.828;2023-02-17T20:53:28;97877.44;;;8.61;100.00
30081;BME280;16902;50.816;12.828;2023-02-17T20:58:30;97870.41;;;8.78;100.00
30081;BME280;16902;50.816;12.828;2023-02-17T21:03:32;97858.56;;;8.75;100.00
30081;BME280;16902;50.816;12.828;2023-02-17T21:08:34;97871.53;;;8.75;100.00
30081;BME280;16902;50.816;12.828;2023-02-17T21:13:36;97885.34;;;8.67;100.00
30081;BME280;16902;50.816;12.828;2023-02-17T21:18:38;97879.03;;;8.54;100.00
30081;BME280;16902;50.816;12.828;2023-02-17T21:23:42;97885.22;;;8.53;100.00
30081;BME280;16902;50.816;12.828;2023-02-17T21:28:44;97907.75;;;8.52;100.00
30081;BME280;16902;50.816;12.828;2023-02-17T21:33:47;97912.28;;;8.50;100.00
30081;BME280;16902;50.816;12.828;2023-02-17T21:38:49;97918.13;;;8.44;100.00
30081;BME280;16902;50.816;12.828;2023-02-17T21:43:51;97934.50;;;8.44;100.00
30081;BME280;16902;50.816;12.828;2023-02-17T21:49:12;97931.25;;;8.59;100.00
30081;BME280;16902;50.816;12.828;2023-02-17T21:54:15;97936.59;;;8.65;100.00
30081;BME280;16902;50.816;12.828;2023-02-17T21:59:17;97939.19;;;8.73;100.00
30081;BME280;16902;50.816;12.828;2023-02-17T22:04:19;97962.56;;;8.73;100.00
30081;BME280;16902;50.816;12.828;2023-02-17T22:09:21;97972.59;;;8.85;100.00
30081;BME280;16902;50.816;12.828;2023-02-17T22:14:24;97968.72;;;8.89;100.00
30081;BME280;16902;50.816;12.828;2023-02-17T22:19:26;97970.19;;;8.99;100.00
30081;BME280;16902;50.816;12.828;2023-02-17T22:24:32;97971.16;;;8.90;100.00
30081;BME280;16902;50.816;12.828;2023-02-17T22:29:34;97966.94;;;8.97;100.00
30081;BME280;16902;50.816;12.828;2023-02-17T22:34:36;97975.69;;;9.05;100.00
30081;BME280;16902;50.816;12.828;2023-02-17T22:39:38;97968.03;;;9.11;100.00
30081;BME280;16902;50.816;12.828;2023-02-17T22:44:40;97966.25;;;9.12;100.00
30081;BME280;16902;50.816;12.828;2023-02-17T22:49:42;97965.94;;;9.15;100.00
30081;BME280;16902;50.816;12.828;2023-02-17T22:54:44;97972.56;;;9.17;100.00
30081;BME280;16902;50.816;12.828;2023-02-17T22:59:46;97979.25;;;9.20;100.00
30081;BME280;16902;50.816;12.828;2023-02-17T23:04:47;97970.78;;;9.18;100.00
30081;BME280;16902;50.816;12.828;2023-02-17T23:09:49;97983.31;;;8.98;100.00
30081;BME280;16902;50.816;12.828;2023-02-17T23:14:51;97982.03;;;8.86;100.00
30081;BME280;16902;50.816;12.828;2023-02-17T23:19:53;97987.38;;;8.92;100.00
30081;BME280;16902;50.816;12.828;2023-02-17T23:24:55;97988.84;;;8.87;100.00
30081;BME280;16902;50.816;12.828;2023-02-17T23:29:57;98008.78;;;8.70;100.00
30081;BME280;16902;50.816;12.828;2023-02-17T23:34:58;98021.91;;;8.44;100.00
30081;BME280;16902;50.816;12.828;2023-02-17T23:40:01;98034.97;;;8.26;100.00
30081;BME280;16902;50.816;12.828;2023-02-17T23:45:03;98036.22;;;8.14;100.00
30081;BME280;16902;50.816;12.828;2023-02-17T23:50:06;98028.25;;;7.99;100.00
30081;BME280;16902;50.816;12.828;2023-02-17T23:55:08;98033.91;;;7.94;100.00
